Estesun — 3ETK8 — position and weather

sailwx.info

Track history (hours):
 
Tides and Currents Weather Stations Pressure Air Temp Water Temp Dewpoint Dewpoint Depression Visibility Wind Speed Wind Dir Waves Ship Positions

Estesun

Last reported at 2017-Sep-21 05:22 UTC. Time now 2017-Sep-21 12:19 UTC.
Position N 36°53' E 002°13'.

Length 136 m; draft 4.6 m.

Type: Cargo ship. MMSI: 370596000.

Date/timePositionNaut miles runAvg speedWind from/ knotsBaromVisibWave heightAir tempDewpointWater temp
2017-Sep-21 05:22N 36°53' E 002°13'411.0
2017-Sep-21 05:00N 36°53' E 002°08'611.1
2017-Sep-21 04:30N 36°52' E 002°01'611.1
2017-Sep-21 04:01N 36°51' E 001°54'3110.5
2017-Sep-21 01:06N 36°47' E 001°16'210.7
2017-Sep-21 00:54N 36°47' E 001°13'510.0
2017-Sep-21 00:26N 36°46' E 001°08'511.4
2017-Sep-20 23:59N 36°46' E 001°01'611.1
2017-Sep-20 23:24N 36°45' E 000°53'3 8.5
2017-Sep-20 23:00N 36°45' E 000°49'510.6
2017-Sep-20 22:30N 36°44' E 000°42'1110.3
2017-Sep-20 21:28N 36°42' E 000°29'1110.6
2017-Sep-20 20:23N 36°41' E 000°15'610.9
2017-Sep-20 19:49N 36°40' E 000°08'1510.8
2017-Sep-20 18:27N 36°37' W 000°11'510.9
2017-Sep-20 18:00N 36°37' W 000°17'611.0
2017-Sep-20 17:30N 36°36' W 000°24'611.1
2017-Sep-20 17:00N 36°35' W 000°30'711.3
2017-Sep-20 16:25N 36°34' W 000°39'22312.4
2017-Sep-19 22:25N 35°60' W 005°12'615.0
2017-Sep-19 22:00N 35°59' W 005°19'714.2
2017-Sep-19 21:31N 35°57' W 005°28'  
2017-Sep-15 03:38N 35°58' W 005°36'1 7.4
2017-Sep-15 03:28N 35°58' W 005°35'3 7.1
2017-Sep-15 03:01N 35°59' W 005°31'3 6.7
2017-Sep-15 02:30N 36°00' W 005°27'4 7.1
2017-Sep-15 02:00N 36°01' W 005°23'4 7.9
2017-Sep-15 01:30N 36°02' W 005°18'168 9.1
2017-Sep-14 06:57N 36°29' W 001°52'4 9.0
2017-Sep-14 06:27N 36°30' W 001°47'4 8.9
2017-Sep-14 06:00N 36°30' W 001°42'4 9.0
2017-Sep-14 05:30N 36°31' W 001°37'5 9.3
2017-Sep-14 05:00N 36°32' W 001°31'6 9.4
2017-Sep-14 04:23N 36°33' W 001°24'4 9.5
2017-Sep-14 04:00N 36°33' W 001°19'7 9.9
2017-Sep-14 03:18N 36°35' W 001°11'310.2
2017-Sep-14 03:00N 36°35' W 001°07'510.4
2017-Sep-14 02:30N 36°36' W 001°01'510.4
2017-Sep-14 02:00N 36°37' W 000°54'510.4
2017-Sep-14 01:30N 36°37' W 000°48'510.4
2017-Sep-14 01:00N 36°38' W 000°41'510.4
2017-Sep-14 00:30N 36°39' W 000°35'510.2
2017-Sep-14 00:00N 36°40' W 000°29'510.3
2017-Sep-13 23:30N 36°41' W 000°22'510.3
2017-Sep-13 23:00N 36°41' W 000°16'510.2
2017-Sep-13 22:30N 36°42' W 000°10'510.1
2017-Sep-13 22:00N 36°43' W 000°03'510.1
2017-Sep-13 21:29N 36°43' E 000°03'510.1
2017-Sep-13 21:00N 36°44' E 000°09'510.2
2017-Sep-13 20:30N 36°45' E 000°15'610.5
2017-Sep-13 19:58N 36°45' E 000°22'610.4
2017-Sep-13 19:24N 36°46' E 000°30'410.4
2017-Sep-13 19:00N 36°46' E 000°35'910.3
2017-Sep-13 18:08N 36°48' E 000°46'210.4
2017-Sep-13 17:59N 36°48' E 000°48'510.3
2017-Sep-13 17:30N 36°49' E 000°54'810.2
2017-Sep-13 16:44N 36°50' E 001°04'310.1
2017-Sep-13 16:24N 36°50' E 001°08'510.3
2017-Sep-13 15:57N 36°51' E 001°14'510.6
2017-Sep-13 15:26N 36°51' E 001°20'1211.0
2017-Sep-13 14:19N 36°53' E 001°36'  
Track history (hours):
 
Tides and Currents Weather Stations Pressure Air Temp Water Temp Dewpoint Dewpoint Depression Visibility Wind Speed Wind Dir Waves Ship Positions

Estesun

Last reported at 2017-Sep-21 05:22 UTC. Time now 2017-Sep-21 12:19 UTC.
Position N 36°53' E 002°13'.

Length 136 m; draft 4.6 m.

Type: Cargo ship. MMSI: 370596000.

Date/timePositionNaut miles runAvg speedWind from/ knotsBaromVisibWave heightAir tempDewpointWater temp
2017-Sep-21 05:22N 36°53' E 002°13'411.0
2017-Sep-21 05:00N 36°53' E 002°08'611.1
2017-Sep-21 04:30N 36°52' E 002°01'611.1
2017-Sep-21 04:01N 36°51' E 001°54'3110.5
2017-Sep-21 01:06N 36°47' E 001°16'210.7
2017-Sep-21 00:54N 36°47' E 001°13'510.0
2017-Sep-21 00:26N 36°46' E 001°08'511.4
2017-Sep-20 23:59N 36°46' E 001°01'611.1
2017-Sep-20 23:24N 36°45' E 000°53'3 8.5
2017-Sep-20 23:00N 36°45' E 000°49'510.6
2017-Sep-20 22:30N 36°44' E 000°42'1110.3
2017-Sep-20 21:28N 36°42' E 000°29'1110.6
2017-Sep-20 20:23N 36°41' E 000°15'610.9
2017-Sep-20 19:49N 36°40' E 000°08'1510.8
2017-Sep-20 18:27N 36°37' W 000°11'510.9
2017-Sep-20 18:00N 36°37' W 000°17'611.0
2017-Sep-20 17:30N 36°36' W 000°24'611.1
2017-Sep-20 17:00N 36°35' W 000°30'711.3
2017-Sep-20 16:25N 36°34' W 000°39'22312.4
2017-Sep-19 22:25N 35°60' W 005°12'615.0
2017-Sep-19 22:00N 35°59' W 005°19'714.2
2017-Sep-19 21:31N 35°57' W 005°28'  
2017-Sep-15 03:38N 35°58' W 005°36'1 7.4
2017-Sep-15 03:28N 35°58' W 005°35'3 7.1
2017-Sep-15 03:01N 35°59' W 005°31'3 6.7
2017-Sep-15 02:30N 36°00' W 005°27'4 7.1
2017-Sep-15 02:00N 36°01' W 005°23'4 7.9
2017-Sep-15 01:30N 36°02' W 005°18'168 9.1
2017-Sep-14 06:57N 36°29' W 001°52'4 9.0
2017-Sep-14 06:27N 36°30' W 001°47'4 8.9
2017-Sep-14 06:00N 36°30' W 001°42'4 9.0
2017-Sep-14 05:30N 36°31' W 001°37'5 9.3
2017-Sep-14 05:00N 36°32' W 001°31'6 9.4
2017-Sep-14 04:23N 36°33' W 001°24'4 9.5
2017-Sep-14 04:00N 36°33' W 001°19'7 9.9
2017-Sep-14 03:18N 36°35' W 001°11'310.2
2017-Sep-14 03:00N 36°35' W 001°07'510.4
2017-Sep-14 02:30N 36°36' W 001°01'510.4
2017-Sep-14 02:00N 36°37' W 000°54'510.4
2017-Sep-14 01:30N 36°37' W 000°48'510.4
2017-Sep-14 01:00N 36°38' W 000°41'510.4
2017-Sep-14 00:30N 36°39' W 000°35'510.2
2017-Sep-14 00:00N 36°40' W 000°29'510.3
2017-Sep-13 23:30N 36°41' W 000°22'510.3
2017-Sep-13 23:00N 36°41' W 000°16'510.2
2017-Sep-13 22:30N 36°42' W 000°10'510.1
2017-Sep-13 22:00N 36°43' W 000°03'510.1
2017-Sep-13 21:29N 36°43' E 000°03'510.1
2017-Sep-13 21:00N 36°44' E 000°09'510.2
2017-Sep-13 20:30N 36°45' E 000°15'610.5
2017-Sep-13 19:58N 36°45' E 000°22'610.4
2017-Sep-13 19:24N 36°46' E 000°30'410.4
2017-Sep-13 19:00N 36°46' E 000°35'910.3
2017-Sep-13 18:08N 36°48' E 000°46'210.4
2017-Sep-13 17:59N 36°48' E 000°48'510.3
2017-Sep-13 17:30N 36°49' E 000°54'810.2
2017-Sep-13 16:44N 36°50' E 001°04'310.1
2017-Sep-13 16:24N 36°50' E 001°08'510.3
2017-Sep-13 15:57N 36°51' E 001°14'510.6
2017-Sep-13 15:26N 36°51' E 001°20'1211.0
2017-Sep-13 14:19N 36°53' E 001°36'  

Dump ship's entire track history